createdAt,value
2022-12-18T00:00:10.549Z,-1.22
2022-12-18T00:02:38.530Z,-1.20
2022-12-18T00:05:07.448Z,-1.20
2022-12-18T00:07:35.387Z,-1.19
2022-12-18T00:10:03.275Z,-1.17
2022-12-18T00:12:31.176Z,-1.17
2022-12-18T00:14:59.008Z,-1.44
2022-12-18T00:17:28.347Z,-1.14
2022-12-18T00:19:56.224Z,-1.23
2022-12-18T00:22:24.088Z,-1.13
2022-12-18T00:24:51.981Z,-1.17
2022-12-18T00:27:19.896Z,-1.08
2022-12-18T00:29:47.733Z,-1.16
2022-12-18T00:32:15.658Z,-1.08
2022-12-18T00:34:44.947Z,-1.07
2022-12-18T00:37:18.302Z,-1.07
2022-12-18T00:39:49.963Z,-1.05
2022-12-18T00:42:35.603Z,-1.05
2022-12-18T00:45:09.063Z,-1.05
2022-12-18T00:47:40.201Z,-1.13
2022-12-18T00:50:11.140Z,-1.04
2022-12-18T00:52:38.964Z,-1.05
2022-12-18T00:55:07.687Z,-1.04
2022-12-18T00:57:35.584Z,-1.35
2022-12-18T01:00:03.426Z,-1.05
2022-12-18T01:02:32.824Z,-1.10
2022-12-18T01:05:00.795Z,-1.16
2022-12-18T01:07:30.033Z,-1.06
2022-12-18T01:09:57.893Z,-1.73
2022-12-18T01:12:26.007Z,-1.05
2022-12-18T01:14:53.840Z,-1.04
2022-12-18T01:17:21.708Z,-1.04
2022-12-18T01:19:49.672Z,-1.05
2022-12-18T01:22:17.711Z,-1.06
2022-12-18T01:24:47.010Z,-1.84
2022-12-18T01:27:15.040Z,-1.05
2022-12-18T01:29:43.440Z,-1.16
2022-12-18T01:32:11.540Z,-1.15
2022-12-18T01:34:39.864Z,-1.05
2022-12-18T01:37:08.007Z,-1.03
2022-12-18T01:39:35.967Z,-1.17
2022-12-18T01:42:11.246Z,-1.04
2022-12-18T01:44:58.054Z,-1.03
2022-12-18T01:47:29.415Z,-1.01
2022-12-18T01:49:59.079Z,-1.00
2022-12-18T01:52:30.416Z,-1.00
2022-12-18T01:54:58.858Z,-0.99
2022-12-18T01:57:29.218Z,-1.06
2022-12-18T02:00:02.097Z,-1.06
2022-12-18T02:02:31.019Z,-1.05
2022-12-18T02:05:02.767Z,-0.95
2022-12-18T02:07:39.760Z,-0.94
2022-12-18T02:10:15.001Z,-0.93
2022-12-18T02:12:50.734Z,-0.92
2022-12-18T02:15:26.004Z,-0.91
2022-12-18T02:17:58.922Z,-0.90
2022-12-18T02:20:34.211Z,-0.89
2022-12-18T02:23:12.116Z,-0.88
2022-12-18T02:26:08.650Z,-0.88
2022-12-18T02:28:42.363Z,-0.88
2022-12-18T02:31:13.886Z,-0.89
2022-12-18T02:33:44.130Z,-0.98
2022-12-18T02:36:14.916Z,-0.88
2022-12-18T02:38:44.662Z,-0.93
2022-12-18T02:41:16.592Z,-1.07
2022-12-18T02:43:48.892Z,-0.85
2022-12-18T02:46:29.748Z,-0.85
2022-12-18T02:49:15.614Z,-0.91
2022-12-18T02:51:53.218Z,-0.81
2022-12-18T02:54:37.187Z,-0.84
2022-12-18T02:57:17.361Z,-0.85
2022-12-18T02:59:56.166Z,-0.85
2022-12-18T03:02:30.206Z,-0.93
2022-12-18T03:05:03.357Z,-0.86
2022-12-18T03:07:40.073Z,-1.08
2022-12-18T03:10:13.651Z,-0.88
2022-12-18T03:12:48.458Z,-1.17
2022-12-18T03:15:21.600Z,-0.90
2022-12-18T03:17:57.361Z,-0.99
2022-12-18T03:20:27.493Z,-0.89
2022-12-18T03:23:02.071Z,-0.95
2022-12-18T03:25:32.657Z,-0.89
2022-12-18T03:28:04.846Z,-0.98
2022-12-18T03:30:38.121Z,-0.88
2022-12-18T03:33:10.967Z,-0.88
2022-12-18T03:35:42.374Z,-0.88
2022-12-18T03:38:11.887Z,-0.90
2022-12-18T03:40:48.577Z,-0.88
2022-12-18T03:43:24.056Z,-0.91
2022-12-18T03:45:58.373Z,-0.92
2022-12-18T03:48:32.928Z,-0.93
2022-12-18T03:51:07.611Z,-0.94
2022-12-18T03:53:43.876Z,-1.06
2022-12-18T03:56:14.543Z,-0.99
2022-12-18T03:58:46.034Z,-0.99
2022-12-18T04:01:17.491Z,-1.00
2022-12-18T04:03:46.943Z,-1.00
2022-12-18T04:06:16.946Z,-1.01
2022-12-18T04:08:45.324Z,-1.25
2022-12-18T04:11:13.527Z,-1.25
2022-12-18T04:13:41.735Z,-1.04
2022-12-18T04:16:11.512Z,-1.06
2022-12-18T04:18:39.612Z,-1.06
2022-12-18T04:21:07.409Z,-1.06
2022-12-18T04:23:35.232Z,-1.06
2022-12-18T04:26:03.224Z,-1.06
2022-12-18T04:28:31.038Z,-1.07
2022-12-18T04:30:59.002Z,-1.04
2022-12-18T04:33:28.613Z,-1.21
2022-12-18T04:35:56.427Z,-1.21
2022-12-18T04:38:24.432Z,-1.08
2022-12-18T04:40:52.372Z,-1.09
2022-12-18T04:43:20.279Z,-1.09
2022-12-18T04:45:48.251Z,-1.10
2022-12-18T04:48:16.804Z,-1.44
2022-12-18T04:50:45.984Z,-1.20
2022-12-18T04:53:13.897Z,-1.10
2022-12-18T04:55:41.791Z,-1.06
2022-12-18T04:58:09.670Z,-1.61
2022-12-18T05:00:37.624Z,-1.19
2022-12-18T05:03:05.756Z,-1.08
2022-12-18T05:05:33.647Z,-1.16
2022-12-18T05:08:03.397Z,-1.07
2022-12-18T05:10:37.778Z,-1.07
2022-12-18T05:13:06.339Z,-1.08
2022-12-18T05:15:34.798Z,-1.06
2022-12-18T05:18:03.117Z,-1.07
2022-12-18T05:20:31.127Z,-1.17
2022-12-18T05:22:59.037Z,-1.16
2022-12-18T05:25:28.655Z,-1.05
2022-12-18T05:27:56.588Z,-1.28
2022-12-18T05:30:25.320Z,-1.02
2022-12-18T05:32:53.121Z,-1.02
2022-12-18T05:35:21.568Z,-1.02
2022-12-18T05:37:49.493Z,-1.00
2022-12-18T05:40:17.378Z,-1.00
2022-12-18T05:42:46.745Z,-0.99
2022-12-18T05:45:14.676Z,-1.00
2022-12-18T05:47:42.485Z,-0.98
2022-12-18T05:50:10.729Z,-0.98
2022-12-18T05:52:38.912Z,-0.95
2022-12-18T05:55:07.044Z,-0.94
2022-12-18T05:57:34.910Z,-0.91
2022-12-18T06:00:04.371Z,-0.90
2022-12-18T06:02:32.257Z,-0.89
2022-12-18T06:05:00.333Z,-0.86
2022-12-18T06:07:28.356Z,-0.85
2022-12-18T06:09:56.155Z,-0.82
2022-12-18T06:12:24.035Z,-0.82
2022-12-18T06:14:52.151Z,-0.83
2022-12-18T06:17:21.302Z,-0.83
2022-12-18T06:19:49.212Z,-0.83
2022-12-18T06:22:18.019Z,-0.82
2022-12-18T06:24:45.829Z,-0.81
2022-12-18T06:27:13.881Z,-0.79
2022-12-18T06:29:41.902Z,-0.77
2022-12-18T06:32:09.927Z,-0.76
2022-12-18T06:34:40.744Z,-0.76
2022-12-18T06:37:08.666Z,-0.76
2022-12-18T06:39:36.523Z,-0.75
2022-12-18T06:42:05.514Z,-0.77
2022-12-18T06:44:33.588Z,-0.76
2022-12-18T06:47:01.455Z,-0.75
2022-12-18T06:49:30.735Z,-0.76
2022-12-18T06:52:00.132Z,-0.77
2022-12-18T06:54:27.953Z,-0.77
2022-12-18T06:56:55.975Z,-1.26
2022-12-18T06:59:23.844Z,-0.76
2022-12-18T07:01:51.819Z,-0.77
2022-12-18T07:04:20.055Z,-0.77
2022-12-18T07:06:48.142Z,-0.77
2022-12-18T07:09:17.363Z,-0.77
2022-12-18T07:11:45.263Z,-0.74
2022-12-18T07:14:13.108Z,-0.74
2022-12-18T07:16:41.905Z,-0.73
2022-12-18T07:19:10.059Z,-0.79
2022-12-18T07:21:37.916Z,-0.67
2022-12-18T07:24:06.615Z,-0.65
2022-12-18T07:26:35.878Z,-0.63
2022-12-18T07:29:03.846Z,-0.60
2022-12-18T07:31:31.728Z,-0.57
2022-12-18T07:33:59.712Z,-0.54
2022-12-18T07:36:27.852Z,-0.72
2022-12-18T07:38:55.808Z,-0.58
2022-12-18T07:41:23.898Z,-0.52
2022-12-18T07:43:53.329Z,-0.40
2022-12-18T07:46:21.146Z,-0.36
2022-12-18T07:48:49.994Z,-0.70
2022-12-18T07:51:19.342Z,-0.61
2022-12-18T07:53:52.263Z,-0.26
2022-12-18T07:56:30.087Z,-0.37
2022-12-18T07:59:00.873Z,-0.31
2022-12-18T08:01:29.307Z,-0.20
2022-12-18T08:03:59.000Z,-0.16
2022-12-18T08:06:26.899Z,-0.14
2022-12-18T08:08:55.636Z,-0.13
2022-12-18T08:11:24.654Z,-0.24
2022-12-18T08:13:53.017Z,-0.28
2022-12-18T08:16:23.222Z,-0.08
2022-12-18T08:18:51.410Z,-0.04
2022-12-18T08:21:22.267Z,-0.11
2022-12-18T08:23:51.664Z,0.01
2022-12-18T08:26:20.959Z,0.04
2022-12-18T08:28:49.264Z,0.06
2022-12-18T08:31:18.808Z,0.10
2022-12-18T08:33:50.732Z,-0.05
2022-12-18T08:36:19.375Z,0.16
2022-12-18T08:38:47.930Z,-0.22
2022-12-18T08:41:17.867Z,0.23
2022-12-18T08:44:03.589Z,0.27
2022-12-18T08:46:36.038Z,0.10
2022-12-18T08:49:06.818Z,0.27
2022-12-18T08:51:35.335Z,0.39
2022-12-18T08:54:05.161Z,0.28
2022-12-18T08:56:35.237Z,0.33
2022-12-18T08:59:03.509Z,0.47
2022-12-18T09:01:31.456Z,0.33
2022-12-18T09:04:00.032Z,0.52
2022-12-18T09:06:29.358Z,0.54
2022-12-18T09:08:57.294Z,0.33
2022-12-18T09:11:27.386Z,0.49
2022-12-18T09:13:56.695Z,0.38
2022-12-18T09:16:30.303Z,0.69
2022-12-18T09:19:01.398Z,0.74
2022-12-18T09:21:33.905Z,0.77
2022-12-18T09:24:04.367Z,0.82
2022-12-18T09:26:33.376Z,0.88
2022-12-18T09:29:01.200Z,0.92
2022-12-18T09:31:29.292Z,0.73
2022-12-18T09:33:57.504Z,0.98
2022-12-18T09:36:25.344Z,0.91
2022-12-18T09:38:55.933Z,1.05
2022-12-18T09:41:41.626Z,0.55
2022-12-18T09:44:18.580Z,1.02
2022-12-18T09:46:51.326Z,1.13
2022-12-18T09:49:24.955Z,0.88
2022-12-18T09:51:57.516Z,1.00
2022-12-18T09:54:32.582Z,1.09
2022-12-18T09:57:00.634Z,1.14
2022-12-18T09:59:36.509Z,0.97
2022-12-18T10:02:16.947Z,1.32
2022-12-18T10:04:45.546Z,1.34
2022-12-18T10:07:20.852Z,1.36
2022-12-18T10:10:00.988Z,1.39
2022-12-18T10:12:34.855Z,1.40
2022-12-18T10:15:09.619Z,1.22
2022-12-18T10:17:47.590Z,1.45
2022-12-18T10:20:25.748Z,1.44
2022-12-18T10:23:04.948Z,1.44
2022-12-18T10:25:40.894Z,1.55
2022-12-18T10:28:14.352Z,1.57
2022-12-18T10:30:44.882Z,1.58
2022-12-18T10:33:14.237Z,1.59
2022-12-18T10:35:44.566Z,1.60
2022-12-18T10:38:26.014Z,1.54
2022-12-18T10:40:58.116Z,1.53
2022-12-18T10:43:28.262Z,1.63
2022-12-18T10:46:19.391Z,1.63
2022-12-18T10:48:54.966Z,1.62
2022-12-18T10:51:26.264Z,1.65
2022-12-18T10:53:58.261Z,1.65
2022-12-18T10:56:30.398Z,1.66
2022-12-18T10:59:01.419Z,1.65
2022-12-18T11:01:30.525Z,1.65
2022-12-18T11:04:04.812Z,1.52
2022-12-18T11:06:32.833Z,1.66
2022-12-18T11:09:06.597Z,1.56
2022-12-18T11:11:41.900Z,1.68
2022-12-18T11:14:18.815Z,1.69
2022-12-18T11:17:23.802Z,1.71
2022-12-18T11:19:39.489Z,1.74
2022-12-18T11:22:22.201Z,1.47
2022-12-18T11:25:30.211Z,1.74
2022-12-18T11:27:53.410Z,1.72
2022-12-18T11:30:26.711Z,1.73
2022-12-18T11:32:58.164Z,1.42
2022-12-18T11:35:37.546Z,1.77
2022-12-18T11:38:15.004Z,1.78
2022-12-18T11:40:46.674Z,1.77
2022-12-18T11:43:23.933Z,1.76
2022-12-18T11:45:57.176Z,1.76
2022-12-18T11:48:29.186Z,1.76
2022-12-18T11:50:58.700Z,1.77
2022-12-18T11:53:28.279Z,1.76
2022-12-18T11:56:08.274Z,1.59
2022-12-18T11:58:48.409Z,1.73
2022-12-18T12:01:27.285Z,1.83
2022-12-18T12:04:19.478Z,1.84
2022-12-18T12:07:02.928Z,1.84
2022-12-18T12:09:42.142Z,1.86
2022-12-18T12:12:28.567Z,1.88
2022-12-18T12:15:06.274Z,1.88
2022-12-18T12:17:43.214Z,1.91
2022-12-18T12:20:18.832Z,1.92
2022-12-18T12:22:52.595Z,1.95
2022-12-18T12:25:29.888Z,1.95
2022-12-18T12:28:09.940Z,1.98
2022-12-18T12:30:51.228Z,1.86
2022-12-18T12:33:32.883Z,2.02
2022-12-18T12:36:10.595Z,2.01
2022-12-18T12:38:51.697Z,1.69
2022-12-18T12:41:42.033Z,2.08
2022-12-18T12:44:16.479Z,2.08
2022-12-18T12:46:48.439Z,2.11
2022-12-18T12:49:21.372Z,2.11
2022-12-18T12:51:57.929Z,2.11
2022-12-18T12:54:28.967Z,2.12
2022-12-18T12:57:02.314Z,1.89
2022-12-18T12:59:36.933Z,2.18
2022-12-18T13:02:17.010Z,2.20
2022-12-18T13:04:52.224Z,2.15
2022-12-18T13:07:28.391Z,2.26
2022-12-18T13:10:27.225Z,2.18
2022-12-18T13:12:58.784Z,2.30
2022-12-18T13:15:31.443Z,2.33
2022-12-18T13:18:15.334Z,2.25
2022-12-18T13:20:51.009Z,2.39
2022-12-18T13:23:33.373Z,2.41
2022-12-18T13:26:02.510Z,1.89
2022-12-18T13:28:55.319Z,2.36
2022-12-18T13:32:05.971Z,2.53
2022-12-18T13:34:35.861Z,2.56
2022-12-18T13:37:43.447Z,2.51
2022-12-18T13:40:56.370Z,2.49
2022-12-18T13:43:33.418Z,2.07
2022-12-18T13:46:03.976Z,2.25
2022-12-18T13:48:35.100Z,2.45
2022-12-18T13:51:07.324Z,2.35
2022-12-18T13:53:41.054Z,2.43
2022-12-18T13:56:09.455Z,2.12
2022-12-18T13:58:37.294Z,2.56
2022-12-18T14:01:18.216Z,2.56
2022-12-18T14:03:46.432Z,2.48
2022-12-18T14:06:18.930Z,2.66
2022-12-18T14:08:48.844Z,2.68
2022-12-18T14:11:25.386Z,2.70
2022-12-18T14:13:54.905Z,2.70
2022-12-18T14:16:23.946Z,2.63
2022-12-18T14:19:02.690Z,2.69
2022-12-18T14:21:48.416Z,2.70
2022-12-18T14:24:19.057Z,2.71
2022-12-18T14:26:48.682Z,2.22
2022-12-18T14:29:27.531Z,2.71
2022-12-18T14:32:16.546Z,2.71
2022-12-18T14:34:46.263Z,2.17
2022-12-18T14:37:16.969Z,2.66
2022-12-18T14:39:59.229Z,2.31
2022-12-18T14:42:29.247Z,2.60
2022-12-18T14:45:30.772Z,2.58
2022-12-18T14:47:58.946Z,2.58
2022-12-18T14:50:27.262Z,2.40
2022-12-18T14:52:56.749Z,2.60
2022-12-18T14:55:24.754Z,2.59
2022-12-18T14:57:54.652Z,2.60
2022-12-18T15:00:24.531Z,2.58
2022-12-18T15:02:55.362Z,2.63
2022-12-18T15:05:28.692Z,2.62
2022-12-18T15:07:59.986Z,2.38
2022-12-18T15:10:29.662Z,2.42
2022-12-18T15:13:11.137Z,2.48
2022-12-18T15:15:50.845Z,2.18
2022-12-18T15:18:21.153Z,2.46
2022-12-18T15:20:51.109Z,2.49
2022-12-18T15:23:23.825Z,2.48
2022-12-18T15:25:58.994Z,2.47
2022-12-18T15:28:31.156Z,2.49
2022-12-18T15:31:07.421Z,2.53
2022-12-18T15:33:37.595Z,2.55
2022-12-18T15:36:10.589Z,2.57
2022-12-18T15:38:39.945Z,2.54
2022-12-18T15:41:13.851Z,2.55
2022-12-18T15:43:42.101Z,2.58
2022-12-18T15:46:15.497Z,2.63
2022-12-18T15:48:46.066Z,2.56
2022-12-18T15:51:17.366Z,2.59
2022-12-18T15:53:47.833Z,2.68
2022-12-18T15:56:34.753Z,2.65
2022-12-18T15:59:03.628Z,2.61
2022-12-18T16:01:35.143Z,2.63
2022-12-18T16:04:06.500Z,2.64
2022-12-18T16:06:51.021Z,2.64
2022-12-18T16:09:26.465Z,2.49
2022-12-18T16:11:54.696Z,2.49
2022-12-18T16:14:27.776Z,2.37
2022-12-18T16:16:58.540Z,2.61
2022-12-18T16:19:27.297Z,2.64
2022-12-18T16:21:57.263Z,2.42
2022-12-18T16:24:28.355Z,2.66
2022-12-18T16:26:57.633Z,2.63
2022-12-18T16:29:28.237Z,2.26
2022-12-18T16:31:56.732Z,2.68
2022-12-18T16:34:29.450Z,2.57
2022-12-18T16:37:04.950Z,2.60
2022-12-18T16:39:35.710Z,2.67
2022-12-18T16:42:05.651Z,2.64
2022-12-18T16:44:34.164Z,2.65
2022-12-18T16:47:03.416Z,1.93
2022-12-18T16:49:31.699Z,2.62
2022-12-18T16:52:02.080Z,2.56
2022-12-18T16:54:31.349Z,2.53
2022-12-18T16:57:03.595Z,2.20
2022-12-18T16:59:31.441Z,2.53
2022-12-18T17:02:00.199Z,2.48
2022-12-18T17:04:28.323Z,2.47
2022-12-18T17:06:56.195Z,1.85
2022-12-18T17:09:25.752Z,1.85
2022-12-18T17:11:54.273Z,2.40
2022-12-18T17:14:26.293Z,2.23
2022-12-18T17:17:19.945Z,2.43
2022-12-18T17:19:43.192Z,2.23
2022-12-18T17:22:11.205Z,2.40
2022-12-18T17:24:39.037Z,2.36
2022-12-18T17:27:08.779Z,2.27
2022-12-18T17:29:41.347Z,2.38
2022-12-18T17:32:13.342Z,2.36
2022-12-18T17:34:41.447Z,2.35
2022-12-18T17:37:09.590Z,2.33
2022-12-18T17:39:37.755Z,2.30
2022-12-18T17:42:05.880Z,2.31
2022-12-18T17:44:36.919Z,2.15
2022-12-18T17:47:06.316Z,2.17
2022-12-18T17:49:34.304Z,1.76
2022-12-18T17:52:02.111Z,2.32
2022-12-18T17:54:30.065Z,2.33
2022-12-18T17:56:57.937Z,2.33
2022-12-18T17:59:25.866Z,2.35
2022-12-18T18:01:55.352Z,2.15
2022-12-18T18:04:23.620Z,2.32
2022-12-18T18:06:51.492Z,2.27
2022-12-18T18:09:19.556Z,1.93
2022-12-18T18:12:05.042Z,2.21
2022-12-18T18:14:33.579Z,2.24
2022-12-18T18:17:04.880Z,2.21
2022-12-18T18:19:34.271Z,2.25
2022-12-18T18:22:03.114Z,2.19
2022-12-18T18:24:31.668Z,2.21
2022-12-18T18:27:00.611Z,2.22
2022-12-18T18:29:30.393Z,2.01
2022-12-18T18:31:58.611Z,2.22
2022-12-18T18:34:29.756Z,2.24
2022-12-18T18:36:58.000Z,2.20
2022-12-18T18:39:26.297Z,1.58
2022-12-18T18:41:55.013Z,2.23
2022-12-18T18:44:25.635Z,1.78
2022-12-18T18:46:55.176Z,2.21
2022-12-18T18:49:24.365Z,2.03
2022-12-18T18:51:54.416Z,2.12
2022-12-18T18:54:22.486Z,2.08
2022-12-18T18:59:38.771Z,2.22
2022-12-18T19:02:06.792Z,2.20
2022-12-18T19:04:36.514Z,2.18
2022-12-18T19:07:08.366Z,2.17
2022-12-18T19:09:37.560Z,2.06
2022-12-18T19:12:23.334Z,1.28
2022-12-18T19:14:51.236Z,2.25
2022-12-18T19:17:19.083Z,2.25
2022-12-18T19:19:47.138Z,2.25
2022-12-18T19:22:16.724Z,2.24
2022-12-18T19:24:44.607Z,2.23
2022-12-18T19:27:12.579Z,2.25
2022-12-18T19:29:40.548Z,2.25
2022-12-18T19:32:08.369Z,2.07
2022-12-18T19:34:36.423Z,2.24
2022-12-18T19:37:04.800Z,2.28
2022-12-18T19:39:34.052Z,2.24
2022-12-18T19:42:02.049Z,2.12
2022-12-18T19:44:29.982Z,2.19
2022-12-18T19:46:57.791Z,1.97
2022-12-18T19:49:27.077Z,2.10
2022-12-18T19:51:55.058Z,2.08
2022-12-18T19:54:22.872Z,1.36
2022-12-18T19:56:52.970Z,2.09
2022-12-18T19:59:21.182Z,2.10
2022-12-18T20:01:50.448Z,2.10
2022-12-18T20:04:18.501Z,2.11
2022-12-18T20:06:51.060Z,2.08
2022-12-18T20:09:19.777Z,2.06
2022-12-18T20:11:48.733Z,1.83
2022-12-18T20:14:23.021Z,1.90
2022-12-18T20:16:52.482Z,1.99
2022-12-18T20:19:21.968Z,2.02
2022-12-18T20:21:50.453Z,1.47
2022-12-18T20:24:18.429Z,2.01
2022-12-18T20:26:46.495Z,2.00
2022-12-18T20:29:14.297Z,1.98
2022-12-18T20:31:43.880Z,1.94
2022-12-18T20:34:12.103Z,1.90
2022-12-18T20:36:41.004Z,1.93
2022-12-18T20:39:10.075Z,1.79
2022-12-18T20:41:39.419Z,1.88
2022-12-18T20:44:21.854Z,1.44
2022-12-18T20:46:55.194Z,1.49
2022-12-18T20:49:23.103Z,1.77
2022-12-18T20:51:52.380Z,1.72
2022-12-18T20:54:20.643Z,1.70
2022-12-18T20:56:48.621Z,0.91
2022-12-18T20:59:16.524Z,1.57
2022-12-18T21:01:48.299Z,1.62
2022-12-18T21:04:19.270Z,1.62
2022-12-18T21:06:52.971Z,1.55
2022-12-18T21:09:37.667Z,1.65
2022-12-18T21:12:25.095Z,1.35
2022-12-18T21:14:53.013Z,1.58
2022-12-18T21:17:20.897Z,1.54
2022-12-18T21:19:50.464Z,1.49
2022-12-18T21:22:18.768Z,1.39
2022-12-18T21:24:46.692Z,1.24
2022-12-18T21:27:17.782Z,1.45
2022-12-18T21:29:47.088Z,1.45
2022-12-18T21:32:15.515Z,1.45
2022-12-18T21:34:47.628Z,1.42
2022-12-18T21:37:17.765Z,1.19
2022-12-18T21:39:45.940Z,1.36
2022-12-18T21:42:31.334Z,1.33
2022-12-18T21:44:59.407Z,1.31
2022-12-18T21:47:27.326Z,0.81
2022-12-18T21:49:56.713Z,1.32
2022-12-18T21:52:31.611Z,1.22
2022-12-18T21:55:06.557Z,1.19
2022-12-18T21:57:36.812Z,1.28
2022-12-18T22:00:05.900Z,1.05
2022-12-18T22:02:34.007Z,0.83
2022-12-18T22:05:02.047Z,1.18
2022-12-18T22:07:31.689Z,1.16
2022-12-18T22:09:59.978Z,1.09
2022-12-18T22:12:43.482Z,1.02
2022-12-18T22:15:19.999Z,0.95
2022-12-18T22:17:49.316Z,0.89
2022-12-18T22:20:17.303Z,0.84
2022-12-18T22:22:46.742Z,0.76
2022-12-18T22:25:14.829Z,0.71
2022-12-18T22:27:43.433Z,0.67
2022-12-18T22:30:14.498Z,0.36
2022-12-18T22:32:42.623Z,0.64
2022-12-18T22:35:15.831Z,0.61
2022-12-18T22:37:44.056Z,0.57
2022-12-18T22:40:23.863Z,0.51
2022-12-18T22:42:52.724Z,0.47
2022-12-18T22:45:24.034Z,0.45
2022-12-18T22:47:52.239Z,0.20
2022-12-18T22:50:20.533Z,0.44
2022-12-18T22:52:48.337Z,0.37
2022-12-18T22:55:17.613Z,0.39
2022-12-18T22:57:48.672Z,0.41
2022-12-18T23:00:21.032Z,0.41
2022-12-18T23:02:59.185Z,-0.12
2022-12-18T23:05:29.505Z,0.36
2022-12-18T23:07:57.668Z,0.36
2022-12-18T23:10:27.360Z,0.22
2022-12-18T23:12:55.345Z,0.06
2022-12-18T23:15:28.125Z,0.27
2022-12-18T23:17:57.493Z,0.27
2022-12-18T23:20:26.110Z,0.25
2022-12-18T23:22:54.233Z,0.26
2022-12-18T23:25:22.091Z,-0.36
2022-12-18T23:27:52.153Z,0.21
2022-12-18T23:30:20.236Z,-0.59
2022-12-18T23:32:48.357Z,0.16
2022-12-18T23:35:16.508Z,0.20
2022-12-18T23:38:00.557Z,0.18
2022-12-18T23:40:30.115Z,0.15
2022-12-18T23:43:00.051Z,-0.08
2022-12-18T23:45:27.979Z,0.08
2022-12-18T23:47:55.965Z,0.05
2022-12-18T23:50:29.116Z,0.03
2022-12-18T23:53:04.615Z,0.00
2022-12-18T23:55:34.438Z,-0.03
2022-12-18T23:58:03.749Z,-0.04
